F\v Arvorig — FGUI — position and weather

sailwx.info

Track history (hours):
 
Tides and Currents Weather Stations Pressure Air Temp Water Temp Dewpoint Dewpoint Depression Visibility Wind Speed Wind Dir Waves Ship Positions

F\v Arvorig

Last reported at 2017-Nov-20 00:30 UTC. Time now 2017-Nov-24 02:24 UTC.
Position N 47°37' W 005°00'.

Length 17 m; draft 4 m.

Type: Fishing. MMSI: 227430000.

Date/timePositionNaut miles runAvg speedWind from/ knotsBaromVisibWave heightAir tempDewpointWater temp
2017-Nov-20 00:30N 47°37' W 005°00'2 2.7
2017-Nov-19 23:55N 47°38' W 005°00'1 2.9
2017-Nov-19 23:30N 47°39' W 005°00'2 3.0
2017-Nov-19 22:56N 47°40' W 005°02'2 3.2
2017-Nov-19 22:24N 47°41' W 005°05'1 3.3
2017-Nov-19 22:00N 47°42' W 005°06'2 3.4
2017-Nov-19 21:30N 47°44' W 005°07'2 3.4
2017-Nov-19 20:59N 47°45' W 005°08'5 2.6
2017-Nov-19 18:56N 47°45' W 005°00'1 2.3
2017-Nov-19 18:27N 47°45' W 005°02'2 3.3
2017-Nov-19 17:55N 47°45' W 005°05'2 3.2
2017-Nov-19 17:22N 47°45' W 005°07'2 3.3
2017-Nov-19 16:39N 47°47' W 005°10'2 2.9
2017-Nov-19 16:06N 47°47' W 005°12'1 3.3
2017-Nov-19 15:41N 47°47' W 005°14'1 3.4
2017-Nov-19 15:28N 47°46' W 005°15'2 3.4
2017-Nov-19 14:44N 47°45' W 005°18'2 2.4
2017-Nov-19 13:58N 47°47' W 005°20'2 2.7
2017-Nov-19 13:02N 47°48' W 005°22'1 2.8
2017-Nov-19 12:35N 47°49' W 005°24'1 2.9
2017-Nov-19 12:14N 47°50' W 005°24'1 3.1
2017-Nov-19 11:59N 47°51' W 005°24'1 2.6
2017-Nov-19 11:28N 47°50' W 005°23'12 2.7
2017-Nov-19 07:09N 47°40' W 005°13'1 2.6
2017-Nov-19 06:38N 47°39' W 005°12'2 3.0
2017-Nov-19 05:58N 47°40' W 005°10'3 3.5
2017-Nov-19 05:05N 47°43' W 005°10'0 3.4
2017-Nov-19 04:57N 47°44' W 005°10'2 3.3
2017-Nov-19 04:30N 47°45' W 005°10'2 3.2
2017-Nov-19 03:50N 47°47' W 005°12'2 3.1
2017-Nov-19 03:20N 47°47' W 005°14'2 3.3
2017-Nov-19 02:50N 47°46' W 005°16'6 3.1
2017-Nov-19 00:56N 47°44' W 005°24'8 2.6
2017-Nov-18 21:47N 47°42' W 005°12'2 3.2
2017-Nov-18 21:07N 47°44' W 005°14'1 4.0
2017-Nov-18 20:50N 47°45' W 005°15'5 2.3
2017-Nov-18 18:42N 47°40' W 005°11'1 2.2
2017-Nov-18 18:05N 47°42' W 005°10'1 3.7
2017-Nov-18 17:56N 47°42' W 005°10'3 3.1
2017-Nov-18 17:01N 47°45' W 005°11'0 4.3
2017-Nov-18 17:00N 47°45' W 005°11'3 3.4
2017-Nov-18 16:11N 47°47' W 005°13'1 3.3
2017-Nov-18 16:00N 47°47' W 005°14'3 3.3
2017-Nov-18 15:07N 47°45' W 005°18'0 3.6
2017-Nov-18 15:00N 47°45' W 005°18'2 2.8
2017-Nov-18 14:22N 47°46' W 005°21'8 2.5
2017-Nov-18 11:23N 47°45' W 005°09'1 2.7
2017-Nov-18 11:00N 47°45' W 005°11'2 3.0
2017-Nov-18 10:12N 47°45' W 005°14'1 4.0
2017-Nov-18 10:00N 47°44' W 005°15'4 5.9
2017-Nov-18 09:24N 47°41' W 005°14'3 4.9
2017-Nov-18 08:51N 47°39' W 005°12'1 3.1
2017-Nov-18 08:26N 47°37' W 005°11'1 1.0
2017-Nov-18 07:55N 47°37' W 005°10'1 3.2
2017-Nov-18 07:28N 47°38' W 005°12'2 3.3
2017-Nov-18 06:47N 47°40' W 005°12'3 3.6
2017-Nov-18 05:49N 47°44' W 005°11'1 3.6
2017-Nov-18 05:29N 47°45' W 005°11'2 3.5
2017-Nov-18 05:01N 47°46' W 005°12'2 3.4
2017-Nov-18 04:18N 47°47' W 005°16'1 3.0
2017-Nov-18 04:00N 47°47' W 005°17'1 2.6
2017-Nov-18 03:29N 47°47' W 005°19'4 2.7
2017-Nov-18 02:01N 47°45' W 005°13'1 3.4
2017-Nov-18 01:52N 47°45' W 005°13'0 1.2
2017-Nov-18 01:28N 47°45' W 005°13'6 1.2
2017-Nov-17 20:29N 47°39' W 005°13'1 2.8
2017-Nov-17 20:00N 47°40' W 005°12'2 3.5
2017-Nov-17 19:22N 47°42' W 005°13'3 3.2
2017-Nov-17 18:33N 47°44' W 005°15'0 2.7
2017-Nov-17 18:30N 47°44' W 005°15'1 2.2
2017-Nov-17 17:50N 47°43' W 005°16'1 2.3
2017-Nov-17 17:25N 47°42' W 005°15'3 2.1
2017-Nov-17 15:57N 47°42' W 005°10'1 2.7
2017-Nov-17 15:30N 47°43' W 005°11'2 3.1
2017-Nov-17 15:00N 47°44' W 005°11'2 3.0
2017-Nov-17 14:28N 47°46' W 005°13'1 2.1
2017-Nov-17 13:50N 47°45' W 005°14'2 3.3
2017-Nov-17 13:21N 47°44' W 005°13'3 3.3
2017-Nov-17 12:26N 47°41' W 005°11'3 3.6
2017-Nov-17 11:42N 47°39' W 005°10'0 1.5
2017-Nov-17 11:30N 47°38' W 005°10'2 3.5
2017-Nov-17 10:58N 47°37' W 005°11'2 3.4
2017-Nov-17 10:27N 47°35' W 005°11'35 5.8
2017-Nov-17 04:23N 47°46' W 004°22'3 7.1
2017-Nov-17 03:55N 47°47' W 004°17'0 0.0
2017-Nov-16 12:24N 47°47' W 004°17'3 8.0
2017-Nov-16 12:00N 47°45' W 004°21'4 7.9
2017-Nov-16 11:28N 47°43' W 004°25'5 8.0
2017-Nov-16 10:51N 47°39' W 004°31'6 8.2
2017-Nov-16 10:04N 47°34' W 004°37'2 8.1
2017-Nov-16 09:50N 47°33' W 004°39'5 9.0
2017-Nov-16 09:19N 47°30' W 004°45'2 7.6
2017-Nov-16 09:00N 47°29' W 004°47'4 7.3
2017-Nov-16 08:25N 47°26' W 004°52'1 1.9
2017-Nov-16 08:00N 47°25' W 004°53'1 2.6
2017-Nov-16 07:30N 47°25' W 004°55'2 2.5
2017-Nov-16 06:47N 47°25' W 004°57'1 2.6
2017-Nov-16 06:20N 47°25' W 004°59'2 2.5
2017-Nov-16 05:43N 47°25' W 005°01'1 2.5
2017-Nov-16 05:28N 47°25' W 005°02'1 2.7
2017-Nov-16 04:59N 47°26' W 005°04'2 2.2
2017-Nov-16 04:16N 47°27' W 005°03'1 2.9
2017-Nov-16 03:56N 47°27' W 005°01'1 3.2
2017-Nov-16 03:30N 47°26' W 004°60'2 2.6
2017-Nov-16 02:43N 47°24' W 004°59'0 1.4
2017-Nov-16 02:29N 47°24' W 004°59'1 2.5
2017-Nov-16 01:59N 47°25' W 004°59'2 2.8
2017-Nov-16 01:11N 47°27' W 005°02'2 3.1
2017-Nov-16 00:30N 47°26' W 005°05'4 3.1
2017-Nov-15 23:20N 47°22' W 005°02'1 3.5
2017-Nov-15 23:00N 47°21' W 005°03'5 3.5
2017-Nov-15 21:41N 47°17' W 005°02'7 3.2
2017-Nov-15 19:23N 47°10' W 004°56'6 3.3
2017-Nov-15 17:38N 47°06' W 004°50'4 1.8
2017-Nov-15 15:25N 47°02' W 004°49'2 0.2
2017-Nov-15 06:54N 47°02' W 004°51'5 2.5
2017-Nov-15 04:54N 47°07' W 004°54'2 3.1
2017-Nov-15 04:14N 47°08' W 004°55'1 3.3
2017-Nov-15 04:00N 47°09' W 004°55'2 3.4
2017-Nov-15 03:30N 47°11' W 004°56'2 3.4
2017-Nov-15 02:57N 47°12' W 004°57'  
2017-Nov-10 12:54N 47°47' W 004°17'3 7.5
2017-Nov-10 12:29N 47°46' W 004°21'4 7.4
2017-Nov-10 11:58N 47°43' W 004°26'4 7.4
2017-Nov-10 11:27N 47°41' W 004°30'6 4.9
2017-Nov-10 10:14N 47°40' W 004°39'1 3.6
2017-Nov-10 09:57N 47°40' W 004°40'2 3.6
2017-Nov-10 09:17N 47°40' W 004°44'1 3.8
2017-Nov-10 09:00N 47°41' W 004°45'3 3.4
2017-Nov-10 07:59N 47°41' W 004°50'2 3.7
2017-Nov-10 07:26N 47°42' W 004°53'2 1.9
2017-Nov-10 06:39N 47°43' W 004°51'0 1.5
2017-Nov-10 06:30N 47°43' W 004°52'2 3.7
2017-Nov-10 05:56N 47°43' W 004°55'2 3.6
2017-Nov-10 05:29N 47°43' W 004°57'2 3.6
2017-Nov-10 04:57N 47°43' W 004°60'2 3.3
2017-Nov-10 04:29N 47°42' W 005°01'2 2.3
2017-Nov-10 03:42N 47°42' W 004°58'1 3.2
2017-Nov-10 03:31N 47°42' W 004°58'2 3.3
2017-Nov-10 03:00N 47°43' W 005°00'2 3.4
2017-Nov-10 02:30N 47°44' W 005°02'2 2.3
2017-Nov-10 01:49N 47°45' W 005°01'1 3.1
2017-Nov-10 01:30N 47°45' W 004°60'2 3.1
2017-Nov-10 00:59N 47°44' W 004°58'  
Track history (hours):
 
Tides and Currents Weather Stations Pressure Air Temp Water Temp Dewpoint Dewpoint Depression Visibility Wind Speed Wind Dir Waves Ship Positions

F\v Arvorig

Last reported at 2017-Nov-20 00:30 UTC. Time now 2017-Nov-24 02:24 UTC.
Position N 47°37' W 005°00'.

Length 17 m; draft 4 m.

Type: Fishing. MMSI: 227430000.

Date/timePositionNaut miles runAvg speedWind from/ knotsBaromVisibWave heightAir tempDewpointWater temp
2017-Nov-20 00:30N 47°37' W 005°00'2 2.7
2017-Nov-19 23:55N 47°38' W 005°00'1 2.9
2017-Nov-19 23:30N 47°39' W 005°00'2 3.0
2017-Nov-19 22:56N 47°40' W 005°02'2 3.2
2017-Nov-19 22:24N 47°41' W 005°05'1 3.3
2017-Nov-19 22:00N 47°42' W 005°06'2 3.4
2017-Nov-19 21:30N 47°44' W 005°07'2 3.4
2017-Nov-19 20:59N 47°45' W 005°08'5 2.6
2017-Nov-19 18:56N 47°45' W 005°00'1 2.3
2017-Nov-19 18:27N 47°45' W 005°02'2 3.3
2017-Nov-19 17:55N 47°45' W 005°05'2 3.2
2017-Nov-19 17:22N 47°45' W 005°07'2 3.3
2017-Nov-19 16:39N 47°47' W 005°10'2 2.9
2017-Nov-19 16:06N 47°47' W 005°12'1 3.3
2017-Nov-19 15:41N 47°47' W 005°14'1 3.4
2017-Nov-19 15:28N 47°46' W 005°15'2 3.4
2017-Nov-19 14:44N 47°45' W 005°18'2 2.4
2017-Nov-19 13:58N 47°47' W 005°20'2 2.7
2017-Nov-19 13:02N 47°48' W 005°22'1 2.8
2017-Nov-19 12:35N 47°49' W 005°24'1 2.9
2017-Nov-19 12:14N 47°50' W 005°24'1 3.1
2017-Nov-19 11:59N 47°51' W 005°24'1 2.6
2017-Nov-19 11:28N 47°50' W 005°23'12 2.7
2017-Nov-19 07:09N 47°40' W 005°13'1 2.6
2017-Nov-19 06:38N 47°39' W 005°12'2 3.0
2017-Nov-19 05:58N 47°40' W 005°10'3 3.5
2017-Nov-19 05:05N 47°43' W 005°10'0 3.4
2017-Nov-19 04:57N 47°44' W 005°10'2 3.3
2017-Nov-19 04:30N 47°45' W 005°10'2 3.2
2017-Nov-19 03:50N 47°47' W 005°12'2 3.1
2017-Nov-19 03:20N 47°47' W 005°14'2 3.3
2017-Nov-19 02:50N 47°46' W 005°16'6 3.1
2017-Nov-19 00:56N 47°44' W 005°24'8 2.6
2017-Nov-18 21:47N 47°42' W 005°12'2 3.2
2017-Nov-18 21:07N 47°44' W 005°14'1 4.0
2017-Nov-18 20:50N 47°45' W 005°15'5 2.3
2017-Nov-18 18:42N 47°40' W 005°11'1 2.2
2017-Nov-18 18:05N 47°42' W 005°10'1 3.7
2017-Nov-18 17:56N 47°42' W 005°10'3 3.1
2017-Nov-18 17:01N 47°45' W 005°11'0 4.3
2017-Nov-18 17:00N 47°45' W 005°11'3 3.4
2017-Nov-18 16:11N 47°47' W 005°13'1 3.3
2017-Nov-18 16:00N 47°47' W 005°14'3 3.3
2017-Nov-18 15:07N 47°45' W 005°18'0 3.6
2017-Nov-18 15:00N 47°45' W 005°18'2 2.8
2017-Nov-18 14:22N 47°46' W 005°21'8 2.5
2017-Nov-18 11:23N 47°45' W 005°09'1 2.7
2017-Nov-18 11:00N 47°45' W 005°11'2 3.0
2017-Nov-18 10:12N 47°45' W 005°14'1 4.0
2017-Nov-18 10:00N 47°44' W 005°15'4 5.9
2017-Nov-18 09:24N 47°41' W 005°14'3 4.9
2017-Nov-18 08:51N 47°39' W 005°12'1 3.1
2017-Nov-18 08:26N 47°37' W 005°11'1 1.0
2017-Nov-18 07:55N 47°37' W 005°10'1 3.2
2017-Nov-18 07:28N 47°38' W 005°12'2 3.3
2017-Nov-18 06:47N 47°40' W 005°12'3 3.6
2017-Nov-18 05:49N 47°44' W 005°11'1 3.6
2017-Nov-18 05:29N 47°45' W 005°11'2 3.5
2017-Nov-18 05:01N 47°46' W 005°12'2 3.4
2017-Nov-18 04:18N 47°47' W 005°16'1 3.0
2017-Nov-18 04:00N 47°47' W 005°17'1 2.6
2017-Nov-18 03:29N 47°47' W 005°19'4 2.7
2017-Nov-18 02:01N 47°45' W 005°13'1 3.4
2017-Nov-18 01:52N 47°45' W 005°13'0 1.2
2017-Nov-18 01:28N 47°45' W 005°13'6 1.2
2017-Nov-17 20:29N 47°39' W 005°13'1 2.8
2017-Nov-17 20:00N 47°40' W 005°12'2 3.5
2017-Nov-17 19:22N 47°42' W 005°13'3 3.2
2017-Nov-17 18:33N 47°44' W 005°15'0 2.7
2017-Nov-17 18:30N 47°44' W 005°15'1 2.2
2017-Nov-17 17:50N 47°43' W 005°16'1 2.3
2017-Nov-17 17:25N 47°42' W 005°15'3 2.1
2017-Nov-17 15:57N 47°42' W 005°10'1 2.7
2017-Nov-17 15:30N 47°43' W 005°11'2 3.1
2017-Nov-17 15:00N 47°44' W 005°11'2 3.0
2017-Nov-17 14:28N 47°46' W 005°13'1 2.1
2017-Nov-17 13:50N 47°45' W 005°14'2 3.3
2017-Nov-17 13:21N 47°44' W 005°13'3 3.3
2017-Nov-17 12:26N 47°41' W 005°11'3 3.6
2017-Nov-17 11:42N 47°39' W 005°10'0 1.5
2017-Nov-17 11:30N 47°38' W 005°10'2 3.5
2017-Nov-17 10:58N 47°37' W 005°11'2 3.4
2017-Nov-17 10:27N 47°35' W 005°11'35 5.8
2017-Nov-17 04:23N 47°46' W 004°22'3 7.1
2017-Nov-17 03:55N 47°47' W 004°17'0 0.0
2017-Nov-16 12:24N 47°47' W 004°17'3 8.0
2017-Nov-16 12:00N 47°45' W 004°21'4 7.9
2017-Nov-16 11:28N 47°43' W 004°25'5 8.0
2017-Nov-16 10:51N 47°39' W 004°31'6 8.2
2017-Nov-16 10:04N 47°34' W 004°37'2 8.1
2017-Nov-16 09:50N 47°33' W 004°39'5 9.0
2017-Nov-16 09:19N 47°30' W 004°45'2 7.6
2017-Nov-16 09:00N 47°29' W 004°47'4 7.3
2017-Nov-16 08:25N 47°26' W 004°52'1 1.9
2017-Nov-16 08:00N 47°25' W 004°53'1 2.6
2017-Nov-16 07:30N 47°25' W 004°55'2 2.5
2017-Nov-16 06:47N 47°25' W 004°57'1 2.6
2017-Nov-16 06:20N 47°25' W 004°59'2 2.5
2017-Nov-16 05:43N 47°25' W 005°01'1 2.5
2017-Nov-16 05:28N 47°25' W 005°02'1 2.7
2017-Nov-16 04:59N 47°26' W 005°04'2 2.2
2017-Nov-16 04:16N 47°27' W 005°03'1 2.9
2017-Nov-16 03:56N 47°27' W 005°01'1 3.2
2017-Nov-16 03:30N 47°26' W 004°60'2 2.6
2017-Nov-16 02:43N 47°24' W 004°59'0 1.4
2017-Nov-16 02:29N 47°24' W 004°59'1 2.5
2017-Nov-16 01:59N 47°25' W 004°59'2 2.8
2017-Nov-16 01:11N 47°27' W 005°02'2 3.1
2017-Nov-16 00:30N 47°26' W 005°05'4 3.1
2017-Nov-15 23:20N 47°22' W 005°02'1 3.5
2017-Nov-15 23:00N 47°21' W 005°03'5 3.5
2017-Nov-15 21:41N 47°17' W 005°02'7 3.2
2017-Nov-15 19:23N 47°10' W 004°56'6 3.3
2017-Nov-15 17:38N 47°06' W 004°50'4 1.8
2017-Nov-15 15:25N 47°02' W 004°49'2 0.2
2017-Nov-15 06:54N 47°02' W 004°51'5 2.5
2017-Nov-15 04:54N 47°07' W 004°54'2 3.1
2017-Nov-15 04:14N 47°08' W 004°55'1 3.3
2017-Nov-15 04:00N 47°09' W 004°55'2 3.4
2017-Nov-15 03:30N 47°11' W 004°56'2 3.4
2017-Nov-15 02:57N 47°12' W 004°57'  
2017-Nov-10 12:54N 47°47' W 004°17'3 7.5
2017-Nov-10 12:29N 47°46' W 004°21'4 7.4
2017-Nov-10 11:58N 47°43' W 004°26'4 7.4
2017-Nov-10 11:27N 47°41' W 004°30'6 4.9
2017-Nov-10 10:14N 47°40' W 004°39'1 3.6
2017-Nov-10 09:57N 47°40' W 004°40'2 3.6
2017-Nov-10 09:17N 47°40' W 004°44'1 3.8
2017-Nov-10 09:00N 47°41' W 004°45'3 3.4
2017-Nov-10 07:59N 47°41' W 004°50'2 3.7
2017-Nov-10 07:26N 47°42' W 004°53'2 1.9
2017-Nov-10 06:39N 47°43' W 004°51'0 1.5
2017-Nov-10 06:30N 47°43' W 004°52'2 3.7
2017-Nov-10 05:56N 47°43' W 004°55'2 3.6
2017-Nov-10 05:29N 47°43' W 004°57'2 3.6
2017-Nov-10 04:57N 47°43' W 004°60'2 3.3
2017-Nov-10 04:29N 47°42' W 005°01'2 2.3
2017-Nov-10 03:42N 47°42' W 004°58'1 3.2
2017-Nov-10 03:31N 47°42' W 004°58'2 3.3
2017-Nov-10 03:00N 47°43' W 005°00'2 3.4
2017-Nov-10 02:30N 47°44' W 005°02'2 2.3
2017-Nov-10 01:49N 47°45' W 005°01'1 3.1
2017-Nov-10 01:30N 47°45' W 004°60'2 3.1
2017-Nov-10 00:59N 47°44' W 004°58'  

Dump ship's entire track history